ROMMA est une association bénévole à but non lucratif. Votre soutien est indispensable : ADHERER à ROMMA ou FAIRE un DON

Granges-lès-Beaumont - (26, Drôme)

Drôme des Collines (155 m)   Longitude: 04°58'E   Latitude: 45°03'N Station partenaire n°123
 

Détail journalier du     <<     >>

Température Precipitation Humidité Pression Vent Dir Rafale Dir. rafale Ensol.
Heure (°C) (mm) (%) (hPa) (km/h) (km/h) (min)
01:00 9.7084103113NNO23NNE0
02:00 9.5085103112N21N0
03:00 9.3085103112NNO24N0
04:00 9.0086103113NNO23NNO0
05:00 9.1084103113N26NNE0
06:00 9.1083103112NNO23NNE0
07:00 8.6084103210NNO19NNO0
08:00 8.7083103211NNO19N0
09:00 8.7082103312N23NNO0
10:00 8.9083103313N26NNE0
11:00 9.7079103415N27N10
12:00 10.1077103317NNO29NNO60
13:00 10.6076103316NNO27NNO60
14:00 10.1075103215NNO27NNO40
15:00 9.8076103214NNO26NNO20
16:00 9.3079103314N24NNO0
17:00 8.6080103316NNO27N0
18:00 7.9082103311NNO21NO0
19:00 7.4082103312NNO23NO0
20:00 7.4081103312N23NNO0
21:00 6.9082103312N24N0
22:00 6.8083103410NNO19NNO0
23:00 7.1083103411NNO23NNO0
minuit 7.2083103410NNO23NO0

Graphique du 28-12-2019

 

Serveur OMMA